sensor_id;sensor_type;location;lat;lon;timestamp;temperature;humidity
6756;DHT22;3415;51.148;7.014;2023-07-20T00:01:53;15.50;1.00
6756;DHT22;3415;51.148;7.014;2023-07-20T00:04:20;15.60;1.00
6756;DHT22;3415;51.148;7.014;2023-07-20T00:06:47;15.50;1.00
6756;DHT22;3415;51.148;7.014;2023-07-20T00:09:14;15.40;1.00
6756;DHT22;3415;51.148;7.014;2023-07-20T00:11:48;15.30;1.00
6756;DHT22;3415;51.148;7.014;2023-07-20T00:14:16;15.30;1.00
6756;DHT22;3415;51.148;7.014;2023-07-20T00:16:45;15.30;1.00
6756;DHT22;3415;51.148;7.014;2023-07-20T00:19:15;15.40;1.00
6756;DHT22;3415;51.148;7.014;2023-07-20T00:21:42;15.40;1.00
6756;DHT22;3415;51.148;7.014;2023-07-20T00:24:09;15.70;1.00
6756;DHT22;3415;51.148;7.014;2023-07-20T00:26:36;15.40;1.00
6756;DHT22;3415;51.148;7.014;2023-07-20T00:31:31;15.40;1.00
6756;DHT22;3415;51.148;7.014;2023-07-20T00:33:59;15.50;1.00
6756;DHT22;3415;51.148;7.014;2023-07-20T00:36:26;15.50;1.00
6756;DHT22;3415;51.148;7.014;2023-07-20T00:38:53;15.50;1.00
6756;DHT22;3415;51.148;7.014;2023-07-20T00:41:20;15.40;1.00
6756;DHT22;3415;51.148;7.014;2023-07-20T00:43:47;15.50;1.00
6756;DHT22;3415;51.148;7.014;2023-07-20T00:46:14;15.50;1.00
6756;DHT22;3415;51.148;7.014;2023-07-20T00:48:41;15.50;1.00
6756;DHT22;3415;51.148;7.014;2023-07-20T00:51:10;15.50;1.00
6756;DHT22;3415;51.148;7.014;2023-07-20T00:53:38;15.60;1.00
6756;DHT22;3415;51.148;7.014;2023-07-20T00:56:05;15.60;1.00
6756;DHT22;3415;51.148;7.014;2023-07-20T00:58:34;15.50;1.00
6756;DHT22;3415;51.148;7.014;2023-07-20T01:01:01;15.50;1.00
6756;DHT22;3415;51.148;7.014;2023-07-20T01:03:28;15.70;1.00
6756;DHT22;3415;51.148;7.014;2023-07-20T01:06:00;15.50;1.00
6756;DHT22;3415;51.148;7.014;2023-07-20T01:08:38;15.50;1.00
6756;DHT22;3415;51.148;7.014;2023-07-20T01:11:13;15.40;1.00
6756;DHT22;3415;51.148;7.014;2023-07-20T01:13:43;15.40;1.00
6756;DHT22;3415;51.148;7.014;2023-07-20T01:16:11;15.40;1.00
6756;DHT22;3415;51.148;7.014;2023-07-20T01:18:38;15.50;1.00
6756;DHT22;3415;51.148;7.014;2023-07-20T01:21:08;15.50;1.00
6756;DHT22;3415;51.148;7.014;2023-07-20T01:30:25;15.80;1.00
6756;DHT22;3415;51.148;7.014;2023-07-20T01:33:03;16.10;1.00
6756;DHT22;3415;51.148;7.014;2023-07-20T01:35:31;16.20;1.00
6756;DHT22;3415;51.148;7.014;2023-07-20T01:37:59;16.40;1.00
6756;DHT22;3415;51.148;7.014;2023-07-20T01:40:27;16.20;1.00
6756;DHT22;3415;51.148;7.014;2023-07-20T01:42:54;16.20;1.00
6756;DHT22;3415;51.148;7.014;2023-07-20T01:45:21;16.20;1.00
6756;DHT22;3415;51.148;7.014;2023-07-20T01:47:48;16.10;1.00
6756;DHT22;3415;51.148;7.014;2023-07-20T01:50:16;16.10;1.00
6756;DHT22;3415;51.148;7.014;2023-07-20T01:52:44;15.70;1.00
6756;DHT22;3415;51.148;7.014;2023-07-20T01:55:11;16.10;1.00
6756;DHT22;3415;51.148;7.014;2023-07-20T01:57:37;16.10;1.00
6756;DHT22;3415;51.148;7.014;2023-07-20T02:00:06;16.10;1.00
6756;DHT22;3415;51.148;7.014;2023-07-20T02:02:34;16.10;1.00
6756;DHT22;3415;51.148;7.014;2023-07-20T02:05:01;16.10;1.00
6756;DHT22;3415;51.148;7.014;2023-07-20T02:07:29;16.00;1.00
6756;DHT22;3415;51.148;7.014;2023-07-20T02:09:56;16.00;1.00
6756;DHT22;3415;51.148;7.014;2023-07-20T02:12:23;15.90;1.00
6756;DHT22;3415;51.148;7.014;2023-07-20T02:14:50;15.90;1.00
6756;DHT22;3415;51.148;7.014;2023-07-20T02:17:18;16.00;8.40
6756;DHT22;3415;51.148;7.014;2023-07-20T02:19:45;16.00;3.70
6756;DHT22;3415;51.148;7.014;2023-07-20T02:22:15;16.00;28.00
6756;DHT22;3415;51.148;7.014;2023-07-20T02:24:43;16.00;19.50
6756;DHT22;3415;51.148;7.014;2023-07-20T02:27:10;12.50;22.60
6756;DHT22;3415;51.148;7.014;2023-07-20T02:29:38;15.90;29.90
6756;DHT22;3415;51.148;7.014;2023-07-20T02:32:06;15.80;26.80
6756;DHT22;3415;51.148;7.014;2023-07-20T02:34:33;15.70;27.50
6756;DHT22;3415;51.148;7.014;2023-07-20T02:37:00;15.50;29.30
6756;DHT22;3415;51.148;7.014;2023-07-20T02:39:28;15.40;33.70
6756;DHT22;3415;51.148;7.014;2023-07-20T02:41:56;15.20;45.00
6756;DHT22;3415;51.148;7.014;2023-07-20T02:44:23;15.30;47.90
6756;DHT22;3415;51.148;7.014;2023-07-20T02:46:50;15.10;47.50
6756;DHT22;3415;51.148;7.014;2023-07-20T02:49:17;15.00;47.50
6756;DHT22;3415;51.148;7.014;2023-07-20T02:54:11;14.90;92.40
6756;DHT22;3415;51.148;7.014;2023-07-20T02:56:38;15.20;99.90
6756;DHT22;3415;51.148;7.014;2023-07-20T02:59:07;15.00;99.90
6756;DHT22;3415;51.148;7.014;2023-07-20T03:01:34;15.10;99.90
6756;DHT22;3415;51.148;7.014;2023-07-20T03:04:01;15.10;99.90
6756;DHT22;3415;51.148;7.014;2023-07-20T03:06:29;15.20;99.90
6756;DHT22;3415;51.148;7.014;2023-07-20T03:08:57;15.20;99.90
6756;DHT22;3415;51.148;7.014;2023-07-20T03:11:24;15.20;99.90
6756;DHT22;3415;51.148;7.014;2023-07-20T03:13:51;15.20;99.90
6756;DHT22;3415;51.148;7.014;2023-07-20T03:16:19;15.20;99.90
6756;DHT22;3415;51.148;7.014;2023-07-20T03:18:47;15.20;99.90
6756;DHT22;3415;51.148;7.014;2023-07-20T03:21:14;15.20;99.90
6756;DHT22;3415;51.148;7.014;2023-07-20T03:23:41;15.30;99.90
6756;DHT22;3415;51.148;7.014;2023-07-20T03:26:08;15.30;99.90
6756;DHT22;3415;51.148;7.014;2023-07-20T03:28:35;15.20;99.90
6756;DHT22;3415;51.148;7.014;2023-07-20T03:31:03;15.30;99.90
6756;DHT22;3415;51.148;7.014;2023-07-20T03:33:32;15.20;99.90
6756;DHT22;3415;51.148;7.014;2023-07-20T03:35:59;15.20;99.90
6756;DHT22;3415;51.148;7.014;2023-07-20T03:38:26;15.40;99.90
6756;DHT22;3415;51.148;7.014;2023-07-20T03:40:55;15.40;99.90
6756;DHT22;3415;51.148;7.014;2023-07-20T03:43:23;15.50;95.00
6756;DHT22;3415;51.148;7.014;2023-07-20T03:45:51;15.50;96.20
6756;DHT22;3415;51.148;7.014;2023-07-20T03:48:20;15.50;76.60
6756;DHT22;3415;51.148;7.014;2023-07-20T03:50:50;15.50;78.80
6756;DHT22;3415;51.148;7.014;2023-07-20T03:53:18;15.60;88.60
6756;DHT22;3415;51.148;7.014;2023-07-20T03:55:45;15.60;87.30
6756;DHT22;3415;51.148;7.014;2023-07-20T03:58:13;15.90;83.10
6756;DHT22;3415;51.148;7.014;2023-07-20T04:00:42;15.70;76.60
6756;DHT22;3415;51.148;7.014;2023-07-20T04:03:11;15.60;58.10
6756;DHT22;3415;51.148;7.014;2023-07-20T04:05:38;15.80;63.60
6756;DHT22;3415;51.148;7.014;2023-07-20T04:08:06;15.70;72.10
6756;DHT22;3415;51.148;7.014;2023-07-20T04:10:33;15.70;61.00
6756;DHT22;3415;51.148;7.014;2023-07-20T04:13:00;15.70;48.40
6756;DHT22;3415;51.148;7.014;2023-07-20T04:15:27;15.70;48.30
6756;DHT22;3415;51.148;7.014;2023-07-20T04:17:54;15.70;48.50
6756;DHT22;3415;51.148;7.014;2023-07-20T04:20:22;15.70;54.90
6756;DHT22;3415;51.148;7.014;2023-07-20T04:22:49;15.80;48.70
6756;DHT22;3415;51.148;7.014;2023-07-20T04:25:18;15.80;48.10
6756;DHT22;3415;51.148;7.014;2023-07-20T04:27:45;15.80;48.40
6756;DHT22;3415;51.148;7.014;2023-07-20T04:30:13;16.00;48.60
6756;DHT22;3415;51.148;7.014;2023-07-20T04:32:41;15.90;48.20
6756;DHT22;3415;51.148;7.014;2023-07-20T04:35:09;15.90;48.30
6756;DHT22;3415;51.148;7.014;2023-07-20T04:37:36;15.90;48.50
6756;DHT22;3415;51.148;7.014;2023-07-20T04:40:04;15.80;48.10
6756;DHT22;3415;51.148;7.014;2023-07-20T04:42:35;15.90;27.90
6756;DHT22;3415;51.148;7.014;2023-07-20T04:45:02;15.90;11.00
6756;DHT22;3415;51.148;7.014;2023-07-20T04:47:29;15.90;10.90
6756;DHT22;3415;51.148;7.014;2023-07-20T04:49:56;15.90;10.70
6756;DHT22;3415;51.148;7.014;2023-07-20T04:52:23;16.00;12.60
6756;DHT22;3415;51.148;7.014;2023-07-20T04:54:50;16.00;11.30
6756;DHT22;3415;51.148;7.014;2023-07-20T04:57:17;16.00;10.90
6756;DHT22;3415;51.148;7.014;2023-07-20T04:59:45;16.10;9.80
6756;DHT22;3415;51.148;7.014;2023-07-20T05:02:12;16.20;10.40
6756;DHT22;3415;51.148;7.014;2023-07-20T05:04:39;16.20;7.00
6756;DHT22;3415;51.148;7.014;2023-07-20T05:07:06;16.20;1.00
6756;DHT22;3415;51.148;7.014;2023-07-20T05:09:33;16.20;1.00
6756;DHT22;3415;51.148;7.014;2023-07-20T05:12:00;16.20;1.00
6756;DHT22;3415;51.148;7.014;2023-07-20T05:14:27;16.20;1.00
6756;DHT22;3415;51.148;7.014;2023-07-20T05:16:55;16.30;1.00
6756;DHT22;3415;51.148;7.014;2023-07-20T05:19:24;16.30;1.00
6756;DHT22;3415;51.148;7.014;2023-07-20T05:21:52;16.20;1.00
6756;DHT22;3415;51.148;7.014;2023-07-20T05:24:18;16.50;1.00
6756;DHT22;3415;51.148;7.014;2023-07-20T05:26:47;16.20;1.00
6756;DHT22;3415;51.148;7.014;2023-07-20T05:29:14;16.30;1.00
6756;DHT22;3415;51.148;7.014;2023-07-20T05:31:41;16.30;1.00
6756;DHT22;3415;51.148;7.014;2023-07-20T05:34:09;16.30;1.00
6756;DHT22;3415;51.148;7.014;2023-07-20T05:36:36;16.30;1.00
6756;DHT22;3415;51.148;7.014;2023-07-20T05:39:03;16.30;1.00
6756;DHT22;3415;51.148;7.014;2023-07-20T05:41:31;16.40;1.00
6756;DHT22;3415;51.148;7.014;2023-07-20T05:43:58;16.40;1.00
6756;DHT22;3415;51.148;7.014;2023-07-20T05:46:24;16.50;1.00
6756;DHT22;3415;51.148;7.014;2023-07-20T05:48:51;16.50;1.00
6756;DHT22;3415;51.148;7.014;2023-07-20T05:51:20;16.60;1.00
6756;DHT22;3415;51.148;7.014;2023-07-20T05:53:47;16.70;1.00
6756;DHT22;3415;51.148;7.014;2023-07-20T05:56:14;16.80;1.00
6756;DHT22;3415;51.148;7.014;2023-07-20T05:58:41;16.90;1.00
6756;DHT22;3415;51.148;7.014;2023-07-20T06:01:08;13.90;1.00
6756;DHT22;3415;51.148;7.014;2023-07-20T06:03:35;17.20;1.00
6756;DHT22;3415;51.148;7.014;2023-07-20T06:06:03;17.40;1.00
6756;DHT22;3415;51.148;7.014;2023-07-20T06:08:32;17.40;1.00
6756;DHT22;3415;51.148;7.014;2023-07-20T06:10:59;17.60;1.00
6756;DHT22;3415;51.148;7.014;2023-07-20T06:13:26;17.60;1.00
6756;DHT22;3415;51.148;7.014;2023-07-20T06:15:53;17.60;1.00
6756;DHT22;3415;51.148;7.014;2023-07-20T06:18:22;17.60;1.00
6756;DHT22;3415;51.148;7.014;2023-07-20T06:20:49;17.50;1.00
6756;DHT22;3415;51.148;7.014;2023-07-20T06:23:17;17.40;1.00
6756;DHT22;3415;51.148;7.014;2023-07-20T06:25:46;17.60;1.00
6756;DHT22;3415;51.148;7.014;2023-07-20T06:28:13;18.10;1.00
6756;DHT22;3415;51.148;7.014;2023-07-20T06:30:40;17.70;1.00
6756;DHT22;3415;51.148;7.014;2023-07-20T06:35:35;17.70;1.00
6756;DHT22;3415;51.148;7.014;2023-07-20T06:38:02;17.70;1.00
6756;DHT22;3415;51.148;7.014;2023-07-20T06:40:29;17.90;1.00
6756;DHT22;3415;51.148;7.014;2023-07-20T06:42:57;18.00;1.00
6756;DHT22;3415;51.148;7.014;2023-07-20T06:45:24;18.00;1.00
6756;DHT22;3415;51.148;7.014;2023-07-20T06:47:51;18.20;1.00
6756;DHT22;3415;51.148;7.014;2023-07-20T06:50:18;18.20;1.00
6756;DHT22;3415;51.148;7.014;2023-07-20T06:52:45;18.40;1.00
6756;DHT22;3415;51.148;7.014;2023-07-20T06:55:13;18.50;1.00
6756;DHT22;3415;51.148;7.014;2023-07-20T06:57:41;19.30;1.00
6756;DHT22;3415;51.148;7.014;2023-07-20T07:00:10;19.30;1.00
6756;DHT22;3415;51.148;7.014;2023-07-20T07:02:39;19.60;1.00
6756;DHT22;3415;51.148;7.014;2023-07-20T07:05:06;19.80;1.00
6756;DHT22;3415;51.148;7.014;2023-07-20T07:07:33;19.60;1.00
6756;DHT22;3415;51.148;7.014;2023-07-20T07:10:01;19.50;1.00
6756;DHT22;3415;51.148;7.014;2023-07-20T07:12:30;20.00;1.00
6756;DHT22;3415;51.148;7.014;2023-07-20T07:14:57;20.80;1.00
6756;DHT22;3415;51.148;7.014;2023-07-20T07:17:26;22.20;1.00
6756;DHT22;3415;51.148;7.014;2023-07-20T07:19:54;23.10;1.00
6756;DHT22;3415;51.148;7.014;2023-07-20T07:22:22;23.80;1.00
6756;DHT22;3415;51.148;7.014;2023-07-20T07:24:48;24.30;99.90
6756;DHT22;3415;51.148;7.014;2023-07-20T07:27:15;24.80;99.90
6756;DHT22;3415;51.148;7.014;2023-07-20T07:29:42;24.50;99.90
6756;DHT22;3415;51.148;7.014;2023-07-20T07:32:10;24.70;99.90
6756;DHT22;3415;51.148;7.014;2023-07-20T07:34:39;24.70;99.90
6756;DHT22;3415;51.148;7.014;2023-07-20T07:37:06;23.90;99.90
6756;DHT22;3415;51.148;7.014;2023-07-20T07:39:33;23.20;99.90
6756;DHT22;3415;51.148;7.014;2023-07-20T07:42:00;23.30;99.90
6756;DHT22;3415;51.148;7.014;2023-07-20T07:44:27;22.90;99.90
6756;DHT22;3415;51.148;7.014;2023-07-20T07:46:54;21.40;99.90
6756;DHT22;3415;51.148;7.014;2023-07-20T07:49:21;20.60;99.90
6756;DHT22;3415;51.148;7.014;2023-07-20T07:51:49;20.50;99.90
6756;DHT22;3415;51.148;7.014;2023-07-20T07:54:17;20.20;99.90
6756;DHT22;3415;51.148;7.014;2023-07-20T07:56:44;20.50;99.90
6756;DHT22;3415;51.148;7.014;2023-07-20T07:59:11;21.60;99.90
6756;DHT22;3415;51.148;7.014;2023-07-20T08:01:38;22.20;99.90
6756;DHT22;3415;51.148;7.014;2023-07-20T08:04:05;22.20;99.90
6756;DHT22;3415;51.148;7.014;2023-07-20T08:06:33;21.70;99.90
6756;DHT22;3415;51.148;7.014;2023-07-20T08:09:01;21.30;99.90
6756;DHT22;3415;51.148;7.014;2023-07-20T08:11:28;22.50;99.90
6756;DHT22;3415;51.148;7.014;2023-07-20T08:13:59;24.10;99.90
6756;DHT22;3415;51.148;7.014;2023-07-20T08:16:26;25.80;99.90
6756;DHT22;3415;51.148;7.014;2023-07-20T08:18:53;27.00;99.90
6756;DHT22;3415;51.148;7.014;2023-07-20T08:21:20;26.90;99.90
6756;DHT22;3415;51.148;7.014;2023-07-20T08:23:47;25.80;99.90
6756;DHT22;3415;51.148;7.014;2023-07-20T08:26:15;24.70;99.90
6756;DHT22;3415;51.148;7.014;2023-07-20T08:28:44;23.60;99.90
6756;DHT22;3415;51.148;7.014;2023-07-20T08:31:13;24.00;99.90
6756;DHT22;3415;51.148;7.014;2023-07-20T08:33:40;26.00;99.90
6756;DHT22;3415;51.148;7.014;2023-07-20T08:36:07;26.30;99.90
6756;DHT22;3415;51.148;7.014;2023-07-20T08:38:34;26.70;99.90
6756;DHT22;3415;51.148;7.014;2023-07-20T08:41:01;25.90;99.90
6756;DHT22;3415;51.148;7.014;2023-07-20T08:43:30;24.50;99.90
6756;DHT22;3415;51.148;7.014;2023-07-20T08:45:58;23.10;99.90
6756;DHT22;3415;51.148;7.014;2023-07-20T08:48:27;22.50;99.90
6756;DHT22;3415;51.148;7.014;2023-07-20T08:50:55;22.70;99.90
6756;DHT22;3415;51.148;7.014;2023-07-20T08:53:23;24.00;99.90
6756;DHT22;3415;51.148;7.014;2023-07-20T08:55:51;24.60;99.90
6756;DHT22;3415;51.148;7.014;2023-07-20T08:58:18;23.60;99.90
6756;DHT22;3415;51.148;7.014;2023-07-20T09:00:47;24.40;99.90
6756;DHT22;3415;51.148;7.014;2023-07-20T09:03:16;25.50;99.90
6756;DHT22;3415;51.148;7.014;2023-07-20T09:05:43;26.90;99.90
6756;DHT22;3415;51.148;7.014;2023-07-20T09:08:11;27.30;99.90
6756;DHT22;3415;51.148;7.014;2023-07-20T09:10:38;26.10;99.90
6756;DHT22;3415;51.148;7.014;2023-07-20T09:13:05;26.30;99.90
6756;DHT22;3415;51.148;7.014;2023-07-20T09:15:32;27.90;99.90
6756;DHT22;3415;51.148;7.014;2023-07-20T09:18:01;28.70;99.90
6756;DHT22;3415;51.148;7.014;2023-07-20T09:20:32;29.50;99.90
6756;DHT22;3415;51.148;7.014;2023-07-20T09:23:00;30.80;99.90
6756;DHT22;3415;51.148;7.014;2023-07-20T09:25:31;32.30;99.90
6756;DHT22;3415;51.148;7.014;2023-07-20T09:28:02;32.70;99.90
6756;DHT22;3415;51.148;7.014;2023-07-20T09:30:30;31.00;99.90
6756;DHT22;3415;51.148;7.014;2023-07-20T09:32:57;28.50;99.90
6756;DHT22;3415;51.148;7.014;2023-07-20T09:35:26;26.70;99.90
6756;DHT22;3415;51.148;7.014;2023-07-20T09:37:55;25.50;99.90
6756;DHT22;3415;51.148;7.014;2023-07-20T09:40:25;24.20;99.90
6756;DHT22;3415;51.148;7.014;2023-07-20T09:42:53;26.20;99.90
6756;DHT22;3415;51.148;7.014;2023-07-20T09:45:29;28.40;99.90
6756;DHT22;3415;51.148;7.014;2023-07-20T09:48:03;28.60;99.90
6756;DHT22;3415;51.148;7.014;2023-07-20T09:50:30;29.20;99.90
6756;DHT22;3415;51.148;7.014;2023-07-20T09:52:58;29.40;99.90
6756;DHT22;3415;51.148;7.014;2023-07-20T09:55:26;29.30;99.90
6756;DHT22;3415;51.148;7.014;2023-07-20T09:57:53;28.60;99.90
6756;DHT22;3415;51.148;7.014;2023-07-20T10:00:21;26.90;99.90
6756;DHT22;3415;51.148;7.014;2023-07-20T10:02:49;25.20;99.90
6756;DHT22;3415;51.148;7.014;2023-07-20T10:05:20;24.60;99.90
6756;DHT22;3415;51.148;7.014;2023-07-20T10:07:49;26.50;99.90
6756;DHT22;3415;51.148;7.014;2023-07-20T10:10:18;27.60;99.90
6756;DHT22;3415;51.148;7.014;2023-07-20T10:12:48;28.80;99.90
6756;DHT22;3415;51.148;7.014;2023-07-20T10:15:19;29.80;99.90
6756;DHT22;3415;51.148;7.014;2023-07-20T10:17:57;30.60;99.90
6756;DHT22;3415;51.148;7.014;2023-07-20T10:20:27;31.10;99.90
6756;DHT22;3415;51.148;7.014;2023-07-20T10:22:56;30.80;99.90
6756;DHT22;3415;51.148;7.014;2023-07-20T10:25:24;31.00;99.90
6756;DHT22;3415;51.148;7.014;2023-07-20T10:27:51;31.10;99.90
6756;DHT22;3415;51.148;7.014;2023-07-20T10:30:18;32.00;99.90
6756;DHT22;3415;51.148;7.014;2023-07-20T10:32:47;31.90;99.90
6756;DHT22;3415;51.148;7.014;2023-07-20T10:35:17;31.40;99.90
6756;DHT22;3415;51.148;7.014;2023-07-20T10:37:50;29.40;99.90
6756;DHT22;3415;51.148;7.014;2023-07-20T10:40:26;28.10;99.90
6756;DHT22;3415;51.148;7.014;2023-07-20T10:42:58;27.10;99.90
6756;DHT22;3415;51.148;7.014;2023-07-20T10:45:50;26.40;99.90
6756;DHT22;3415;51.148;7.014;2023-07-20T10:48:19;26.00;99.90
6756;DHT22;3415;51.148;7.014;2023-07-20T10:51:08;26.10;99.90
6756;DHT22;3415;51.148;7.014;2023-07-20T10:53:37;27.30;99.90
6756;DHT22;3415;51.148;7.014;2023-07-20T10:56:07;27.30;99.90
6756;DHT22;3415;51.148;7.014;2023-07-20T10:58:35;27.30;99.90
6756;DHT22;3415;51.148;7.014;2023-07-20T11:01:03;26.90;99.90
6756;DHT22;3415;51.148;7.014;2023-07-20T11:03:34;26.60;99.90
6756;DHT22;3415;51.148;7.014;2023-07-20T11:06:34;26.60;99.90
6756;DHT22;3415;51.148;7.014;2023-07-20T11:09:07;27.00;99.90
6756;DHT22;3415;51.148;7.014;2023-07-20T11:11:37;26.70;99.90
6756;DHT22;3415;51.148;7.014;2023-07-20T11:14:06;26.50;99.90
6756;DHT22;3415;51.148;7.014;2023-07-20T11:16:39;27.50;99.90
6756;DHT22;3415;51.148;7.014;2023-07-20T11:19:14;27.60;99.90
6756;DHT22;3415;51.148;7.014;2023-07-20T11:21:44;27.00;99.90
6756;DHT22;3415;51.148;7.014;2023-07-20T11:24:13;27.80;99.90
6756;DHT22;3415;51.148;7.014;2023-07-20T11:26:44;28.00;99.90
6756;DHT22;3415;51.148;7.014;2023-07-20T11:29:13;27.60;99.90
6756;DHT22;3415;51.148;7.014;2023-07-20T11:31:41;27.50;99.90
6756;DHT22;3415;51.148;7.014;2023-07-20T11:34:11;27.30;99.90
6756;DHT22;3415;51.148;7.014;2023-07-20T11:36:39;27.00;99.90
6756;DHT22;3415;51.148;7.014;2023-07-20T11:39:08;27.10;99.90
6756;DHT22;3415;51.148;7.014;2023-07-20T11:41:37;27.10;99.90
6756;DHT22;3415;51.148;7.014;2023-07-20T11:44:05;28.90;99.90
6756;DHT22;3415;51.148;7.014;2023-07-20T11:46:33;29.00;99.90
6756;DHT22;3415;51.148;7.014;2023-07-20T11:49:03;29.30;99.90
6756;DHT22;3415;51.148;7.014;2023-07-20T11:51:30;28.30;99.90
6756;DHT22;3415;51.148;7.014;2023-07-20T11:53:58;27.80;99.90
6756;DHT22;3415;51.148;7.014;2023-07-20T11:56:26;27.70;99.90
6756;DHT22;3415;51.148;7.014;2023-07-20T11:58:57;27.00;99.90
6756;DHT22;3415;51.148;7.014;2023-07-20T12:01:27;26.10;99.90
6756;DHT22;3415;51.148;7.014;2023-07-20T12:03:57;25.80;99.90
6756;DHT22;3415;51.148;7.014;2023-07-20T12:06:24;25.60;99.90
6756;DHT22;3415;51.148;7.014;2023-07-20T12:08:55;24.90;99.90
6756;DHT22;3415;51.148;7.014;2023-07-20T12:11:33;24.50;99.90
6756;DHT22;3415;51.148;7.014;2023-07-20T12:14:02;24.20;99.90
6756;DHT22;3415;51.148;7.014;2023-07-20T12:16:30;24.00;99.90
6756;DHT22;3415;51.148;7.014;2023-07-20T12:19:01;24.00;99.90
6756;DHT22;3415;51.148;7.014;2023-07-20T12:21:29;24.00;99.90
6756;DHT22;3415;51.148;7.014;2023-07-20T12:23:56;23.90;99.90
6756;DHT22;3415;51.148;7.014;2023-07-20T12:26:25;23.90;99.90
6756;DHT22;3415;51.148;7.014;2023-07-20T12:28:52;24.30;99.90
6756;DHT22;3415;51.148;7.014;2023-07-20T12:31:21;24.60;99.90
6756;DHT22;3415;51.148;7.014;2023-07-20T12:33:50;24.60;99.90
6756;DHT22;3415;51.148;7.014;2023-07-20T12:36:17;24.40;99.90
6756;DHT22;3415;51.148;7.014;2023-07-20T12:38:45;24.80;99.90
6756;DHT22;3415;51.148;7.014;2023-07-20T12:41:12;24.90;99.90
6756;DHT22;3415;51.148;7.014;2023-07-20T12:43:40;24.90;99.90
6756;DHT22;3415;51.148;7.014;2023-07-20T12:46:07;24.50;99.90
6756;DHT22;3415;51.148;7.014;2023-07-20T12:48:36;24.60;99.90
6756;DHT22;3415;51.148;7.014;2023-07-20T12:51:05;24.80;99.90
6756;DHT22;3415;51.148;7.014;2023-07-20T12:53:33;24.80;99.90
6756;DHT22;3415;51.148;7.014;2023-07-20T12:56:00;24.90;99.90
6756;DHT22;3415;51.148;7.014;2023-07-20T12:58:28;24.60;99.90
6756;DHT22;3415;51.148;7.014;2023-07-20T13:00:55;24.50;99.90
6756;DHT22;3415;51.148;7.014;2023-07-20T13:03:22;24.20;99.90
6756;DHT22;3415;51.148;7.014;2023-07-20T13:05:50;23.50;99.90
6756;DHT22;3415;51.148;7.014;2023-07-20T13:08:17;23.20;99.90
6756;DHT22;3415;51.148;7.014;2023-07-20T13:10:45;22.90;99.90
6756;DHT22;3415;51.148;7.014;2023-07-20T13:13:12;22.70;99.90
6756;DHT22;3415;51.148;7.014;2023-07-20T13:15:44;22.50;99.90
6756;DHT22;3415;51.148;7.014;2023-07-20T13:18:11;22.40;99.90
6756;DHT22;3415;51.148;7.014;2023-07-20T13:20:38;22.60;99.90
6756;DHT22;3415;51.148;7.014;2023-07-20T13:23:07;22.70;99.90
6756;DHT22;3415;51.148;7.014;2023-07-20T13:25:34;22.90;99.90
6756;DHT22;3415;51.148;7.014;2023-07-20T13:28:01;23.20;99.90
6756;DHT22;3415;51.148;7.014;2023-07-20T13:30:28;23.40;99.90
6756;DHT22;3415;51.148;7.014;2023-07-20T13:32:55;23.90;99.90
6756;DHT22;3415;51.148;7.014;2023-07-20T13:35:22;24.30;99.90
6756;DHT22;3415;51.148;7.014;2023-07-20T13:37:49;24.30;99.90
6756;DHT22;3415;51.148;7.014;2023-07-20T13:40:18;24.50;99.90
6756;DHT22;3415;51.148;7.014;2023-07-20T13:42:45;24.70;99.90
6756;DHT22;3415;51.148;7.014;2023-07-20T13:45:12;25.00;99.90
6756;DHT22;3415;51.148;7.014;2023-07-20T13:47:39;24.80;99.90
6756;DHT22;3415;51.148;7.014;2023-07-20T13:50:06;24.50;99.90
6756;DHT22;3415;51.148;7.014;2023-07-20T13:52:33;24.30;99.90
6756;DHT22;3415;51.148;7.014;2023-07-20T13:55:02;23.70;99.90
6756;DHT22;3415;51.148;7.014;2023-07-20T13:57:31;23.50;99.90
6756;DHT22;3415;51.148;7.014;2023-07-20T13:59:58;23.60;99.90
6756;DHT22;3415;51.148;7.014;2023-07-20T14:02:26;23.40;99.90
6756;DHT22;3415;51.148;7.014;2023-07-20T14:04:53;23.30;99.90
6756;DHT22;3415;51.148;7.014;2023-07-20T14:07:21;23.30;99.90
6756;DHT22;3415;51.148;7.014;2023-07-20T14:09:48;23.30;99.90
6756;DHT22;3415;51.148;7.014;2023-07-20T14:12:15;23.30;99.90
6756;DHT22;3415;51.148;7.014;2023-07-20T14:14:43;23.00;99.90
6756;DHT22;3415;51.148;7.014;2023-07-20T14:17:10;22.90;99.90
6756;DHT22;3415;51.148;7.014;2023-07-20T14:19:38;22.70;99.90
6756;DHT22;3415;51.148;7.014;2023-07-20T14:22:05;22.40;99.90
6756;DHT22;3415;51.148;7.014;2023-07-20T14:24:32;22.40;99.90
6756;DHT22;3415;51.148;7.014;2023-07-20T14:26:59;22.60;99.90
6756;DHT22;3415;51.148;7.014;2023-07-20T14:29:27;22.30;99.90
6756;DHT22;3415;51.148;7.014;2023-07-20T14:31:58;22.20;99.90
6756;DHT22;3415;51.148;7.014;2023-07-20T14:34:25;21.90;99.90
6756;DHT22;3415;51.148;7.014;2023-07-20T14:36:52;22.10;99.90
6756;DHT22;3415;51.148;7.014;2023-07-20T14:39:19;22.20;99.90
6756;DHT22;3415;51.148;7.014;2023-07-20T14:41:48;22.40;99.90
6756;DHT22;3415;51.148;7.014;2023-07-20T14:44:15;22.50;99.90
6756;DHT22;3415;51.148;7.014;2023-07-20T14:46:42;22.50;99.90
6756;DHT22;3415;51.148;7.014;2023-07-20T14:49:11;22.40;99.90
6756;DHT22;3415;51.148;7.014;2023-07-20T14:51:38;22.30;99.90
6756;DHT22;3415;51.148;7.014;2023-07-20T14:54:09;22.30;99.90
6756;DHT22;3415;51.148;7.014;2023-07-20T14:56:38;22.20;99.90
6756;DHT22;3415;51.148;7.014;2023-07-20T14:59:06;22.30;99.90
6756;DHT22;3415;51.148;7.014;2023-07-20T15:01:33;22.40;99.90
6756;DHT22;3415;51.148;7.014;2023-07-20T15:04:00;22.60;99.90
6756;DHT22;3415;51.148;7.014;2023-07-20T15:06:29;22.60;99.90
6756;DHT22;3415;51.148;7.014;2023-07-20T15:08:57;23.10;99.90
6756;DHT22;3415;51.148;7.014;2023-07-20T15:11:25;23.50;99.90
6756;DHT22;3415;51.148;7.014;2023-07-20T15:13:52;23.90;99.90
6756;DHT22;3415;51.148;7.014;2023-07-20T15:16:19;23.80;99.90
6756;DHT22;3415;51.148;7.014;2023-07-20T15:18:46;23.90;99.90
6756;DHT22;3415;51.148;7.014;2023-07-20T15:21:13;23.60;99.90
6756;DHT22;3415;51.148;7.014;2023-07-20T15:23:42;23.30;99.90
6756;DHT22;3415;51.148;7.014;2023-07-20T15:26:09;23.30;99.90
6756;DHT22;3415;51.148;7.014;2023-07-20T15:28:36;23.00;99.90
6756;DHT22;3415;51.148;7.014;2023-07-20T15:31:04;22.70;99.90
6756;DHT22;3415;51.148;7.014;2023-07-20T15:33:31;22.90;99.90
6756;DHT22;3415;51.148;7.014;2023-07-20T15:35:58;22.60;99.90
6756;DHT22;3415;51.148;7.014;2023-07-20T15:38:25;22.80;99.90
6756;DHT22;3415;51.148;7.014;2023-07-20T15:40:54;22.70;99.90
6756;DHT22;3415;51.148;7.014;2023-07-20T15:43:22;22.90;99.90
6756;DHT22;3415;51.148;7.014;2023-07-20T15:45:49;22.90;99.90
6756;DHT22;3415;51.148;7.014;2023-07-20T15:48:16;22.90;99.90
6756;DHT22;3415;51.148;7.014;2023-07-20T15:50:46;23.10;99.90
6756;DHT22;3415;51.148;7.014;2023-07-20T15:53:13;23.00;99.90
6756;DHT22;3415;51.148;7.014;2023-07-20T15:55:40;23.00;99.90
6756;DHT22;3415;51.148;7.014;2023-07-20T15:58:08;23.20;99.90
6756;DHT22;3415;51.148;7.014;2023-07-20T16:00:35;23.10;99.90
6756;DHT22;3415;51.148;7.014;2023-07-20T16:03:03;23.30;99.90
6756;DHT22;3415;51.148;7.014;2023-07-20T16:05:31;23.10;99.90
6756;DHT22;3415;51.148;7.014;2023-07-20T16:07:58;23.10;99.90
6756;DHT22;3415;51.148;7.014;2023-07-20T16:10:25;23.00;99.90
6756;DHT22;3415;51.148;7.014;2023-07-20T16:12:52;22.80;99.90
6756;DHT22;3415;51.148;7.014;2023-07-20T16:15:20;22.90;99.90
6756;DHT22;3415;51.148;7.014;2023-07-20T16:17:48;23.00;99.90
6756;DHT22;3415;51.148;7.014;2023-07-20T16:20:15;23.10;99.90
6756;DHT22;3415;51.148;7.014;2023-07-20T16:22:42;23.00;99.90
6756;DHT22;3415;51.148;7.014;2023-07-20T16:25:10;23.00;99.90
6756;DHT22;3415;51.148;7.014;2023-07-20T16:27:37;22.90;99.90